Terminal Aerodrome Forecast
Issued by NWS Albany, NY

Home | Current Version | Previous Version | Text Only | Print | Product List | Glossary On
Versions: 1 2 3 4 5 6 7 8 9 10 11 12 13 14 15 16 17 18 19
000
FTUS41 KALY 031720
TAFGFL
TAF
KGFL 031720Z 0318/0418 20012G20KT P6SM BKN050 BKN100
      TEMPO 0320/0321 4SM -TSRA BKN035CB BKN100
     FM032100 21012G20KT P6SM SCT025 BKN050
      TEMPO 0321/0401 3SM -TSRA BR BKN025CB OVC050
     FM040100 19005KT 5SM BR BKN050 BKN100
     FM040600 VRB03KT 2SM BR BKN015=

USA.gov is the U.S. government's official web portal to all federal, state and local government web resources and services.